Latest Weather Observations for Woolshed

IDQ60801

Issued at 11:05 pm EST Sunday 23 November 2014 (issued every 30 minutes, with the page automatically refreshed every 10 minutes)

About weather observations | Map of weather stations | Latest weather observations for QLD | Other Formats
Station Details ID: 033307 Name: WOOLSHED Lat: -19.42 Lon: 146.54 Height: 556.04 m
Data from the previous 72 hours. | See also: Recent months at Woolshed
Date/Time
EST
Temp
°C
App
Temp
°C
Dew
Point
Rel
Hum
%
Delta-T
°C
Wind Press
QNH
hPa
Press
MSL
hPa
Rain
since 9 am
mm
Dir
 
Spd
km/h
Gust
km/h
Spd
kts
Gust
kts
23/11:00pm 21.8 23.6 21.1 96 0.5 NE 13 24 7 13 1017.6 1014.3 0.0
23/10:30pm 21.9 24.5 21.2 96 0.5 NE 9 17 5 9 1017.7 1014.4 0.0
23/10:00pm 21.9 24.1 21.1 95 0.5 NE 11 20 6 11 1017.7 1014.4 0.0
23/09:30pm 22.1 24.8 21.3 95 0.5 NE 9 20 5 11 1017.5 1014.2 0.0
23/09:00pm 22.1 24.8 21.3 95 0.5 ENE 9 17 5 9 1017.2 1013.9 0.0
23/08:30pm 22.2 25.2 21.2 94 0.7 NE 7 15 4 8 1016.9 1013.6 0.0
23/08:00pm 22.2 24.7 21.0 93 0.8 NE 9 19 5 10 1016.6 1013.3 0.0
23/07:30pm 22.5 24.9 20.8 90 1.1 NNE 9 20 5 11 1016.1 1012.8 0.0
23/07:00pm 22.7 24.3 20.0 85 1.8 NNE 11 20 6 11 1015.7 1012.4 0.0
23/06:30pm 23.1 24.8 20.1 83 2.0 NNE 11 20 6 11 1015.4 1012.1 0.0
23/06:00pm 23.7 25.0 19.4 77 2.8 NNE 11 22 6 12 1015.4 1012.1 0.0
23/05:30pm 25.0 25.8 18.2 66 4.4 NE 11 20 6 11 1015.3 1012.0 0.0
23/05:00pm 25.5 26.5 18.7 66 4.4 NNE 11 26 6 14 1015.3 1012.0 0.0
23/04:30pm 25.3 26.2 19.2 69 4.0 NNE 13 26 7 14 1015.3 1012.0 0.0
23/04:00pm 25.6 26.6 19.5 69 4.0 NNE 13 24 7 13 1015.3 1012.0 0.0
23/03:30pm 26.9 27.3 19.0 62 5.2 NNE 15 30 8 16 1015.3 1012.0 0.0
23/03:00pm 26.8 27.5 18.9 62 5.2 NNE 13 26 7 14 1015.5 1012.2 0.0
23/02:30pm 27.3 27.7 19.1 61 5.4 NNE 15 24 8 13 1015.7 1012.4 0.0
23/02:00pm 28.8 29.2 18.9 55 6.5 NNE 15 26 8 14 1015.9 1012.6 0.0
23/01:30pm 28.7 28.5 17.6 51 7.2 NNE 15 28 8 15 1016.3 1013.0 0.0
23/01:00pm 28.9 28.5 16.1 46 8.1 NNE 13 28 7 15 1016.7 1013.4 0.0
23/12:30pm 29.7 29.5 16.8 45 8.3 NE 13 26 7 14 1017.0 1013.7 0.0
23/12:00pm 27.2 27.5 17.1 54 6.4 NNE 11 22 6 12 1017.4 1014.1 0.0
23/11:30am 27.4 27.6 17.6 55 6.3 NNE 13 20 7 11 1017.7 1014.4 0.0
23/11:00am 27.0 27.8 17.2 55 6.3 NE 9 22 5 12 1018.2 1014.9 0.0
23/10:30am 28.2 28.8 17.7 53 6.8 NNE 11 20 6 11 1018.3 1015.0 0.0
23/10:00am 27.2 27.3 17.4 55 6.3 NE 13 20 7 11 1018.4 1015.1 0.0
23/09:30am 26.0 27.6 19.2 66 4.5 NNE 9 19 5 10 1018.6 1015.3 0.0
23/09:00am 25.2 26.7 18.9 68 4.1 ENE 9 19 5 10 1018.5 1015.2 0.0
23/08:30am 24.8 26.2 18.7 69 4.0 ENE 9 20 5 11 1018.4 1015.1 0.0
23/08:00am 24.5 25.9 19.6 74 3.2 NNE 11 19 6 10 1018.3 1015.0 0.0
23/07:30am 23.0 25.3 20.7 87 1.5 NE 9 19 5 10 1018.0 1014.8 0.0
23/07:00am 21.9 24.1 20.5 92 0.9 NE 9 17 5 9 1017.7 1014.4 0.0
23/06:30am 21.5 23.6 20.1 92 0.9 ENE 9 15 5 8 1017.2 1013.9 0.0
23/06:00am 21.2 23.8 20.4 95 0.5 NE 7 15 4 8 1016.9 1013.6 0.0
23/05:30am 21.2 23.8 20.4 95 0.5 ENE 7 13 4 7 1016.4 1013.1 0.0
23/05:00am 21.1 23.6 20.3 95 0.5 ENE 7 15 4 8 1015.9 1012.6 0.0
23/04:30am 21.2 23.8 20.5 96 0.5 NE 7 17 4 9 1015.8 1012.5 0.0
23/04:00am 21.4 23.4 20.7 96 0.5 ENE 11 19 6 10 1015.7 1012.4 0.0
23/03:30am 21.4 23.7 20.7 96 0.5 NE 9 19 5 10 1015.5 1012.2 0.0
23/03:00am 21.4 23.8 20.9 97 0.3 NE 9 19 5 10 1015.5 1012.2 0.0
23/02:30am 21.4 23.1 20.9 97 0.3 NE 13 24 7 13 1015.3 1012.0 0.0
23/02:00am 21.4 23.6 21.1 98 0.2 NE 11 19 6 10 1015.6 1012.3 0.0
23/01:30am 21.5 23.6 21.0 97 0.3 NE 11 24 6 13 1015.8 1012.5 0.0
23/01:00am 21.5 23.6 21.0 97 0.3 NE 11 22 6 12 1016.0 1012.7 0.0
23/12:30am 21.6 22.9 20.9 96 0.5 NE 15 26 8 14 1016.7 1013.4 0.0
23/12:00am 21.6 23.7 20.9 96 0.5 NE 11 28 6 15 1016.9 1013.6 0.0
 
Date/Time
EST
Temp
°C
App
Temp
°C
Dew
Point
Rel
Hum
%
Delta-T
°C
Wind Press
QNH
hPa
Press
MSL
hPa
Rain
since 9 am
mm
Dir
 
Spd
km/h
Gust
km/h
Spd
kts
Gust
kts
22/11:30pm 21.6 23.3 20.9 96 0.5 NE 13 24 7 13 1016.9 1013.6 0.0
22/11:00pm 21.7 23.8 20.9 95 0.5 NE 11 24 6 13 1017.0 1013.7 0.0
22/10:30pm 21.8 23.5 21.0 95 0.5 NE 13 26 7 14 1017.1 1013.8 0.0
22/10:00pm 21.9 24.0 20.9 94 0.7 NE 11 19 6 10 1017.0 1013.7 0.0
22/09:30pm 21.9 24.0 20.9 94 0.7 NNE 11 20 6 11 1016.8 1013.5 0.0
22/09:00pm 22.0 24.1 21.0 94 0.7 NE 11 20 6 11 1016.6 1013.3 0.0
22/08:30pm 21.9 23.5 20.7 93 0.8 NNE 13 20 7 11 1016.3 1013.0 0.0
22/08:00pm 22.0 23.5 20.5 91 1.0 NNE 13 20 7 11 1015.9 1012.6 0.0
22/07:30pm 22.3 24.2 20.6 90 1.1 NNE 11 22 6 12 1015.5 1012.2 0.0
22/07:00pm 22.4 24.1 20.1 87 1.5 NNE 11 20 6 11 1015.2 1011.9 0.0
22/06:30pm 23.1 25.1 19.9 82 2.1 NNE 9 17 5 9 1015.1 1011.8 0.0
22/06:00pm 23.9 25.3 19.6 77 2.8 NNE 11 26 6 14 1015.1 1011.8 0.0
22/05:30pm 24.5 25.6 19.6 74 3.2 NNE 13 24 7 13 1014.8 1011.5 0.0
22/05:00pm 25.4 26.0 19.5 70 3.9 NNE 15 28 8 15 1014.6 1011.2 0.0
22/04:30pm 26.3 27.2 19.2 65 4.7 NNE 13 26 7 14 1014.2 1010.9 0.0
22/04:00pm 27.2 28.0 19.0 61 5.4 NNE 13 26 7 14 1014.4 1011.0 0.0
22/03:30pm 27.6 27.8 18.6 58 5.9 NNE 15 26 8 14 1014.4 1011.0 0.0
22/03:00pm 28.9 29.6 18.9 54 6.6 NE 13 26 7 14 1014.5 1011.1 0.0
22/02:30pm 29.2 30.1 19.2 54 6.6 NE 13 22 7 12 1014.9 1011.6 0.0
22/02:00pm 28.5 29.1 18.6 55 6.5 NE 13 24 7 13 1015.3 1012.0 0.0
22/01:30pm 29.0 30.3 18.4 52 6.9 ENE 9 20 5 11 1015.7 1012.4 0.0
22/01:00pm 29.1 29.7 18.5 52 6.9 NE 13 24 7 13 1015.9 1012.6 0.0
22/12:30pm 29.0 29.5 18.4 52 6.9 NNE 13 20 7 11 1016.4 1013.1 0.0
22/12:00pm 29.0 29.9 18.4 52 6.9 NNE 11 20 6 11 1016.7 1013.4 0.0
22/11:30am 28.8 29.5 18.0 52 7.0 NNE 11 20 6 11 1017.0 1013.7 0.0
22/11:00am 27.4 28.0 17.6 55 6.3 NNE 11 20 6 11 1017.3 1014.0 0.0
22/10:30am 26.8 28.1 18.4 60 5.5 NNE 9 17 5 9 1017.6 1014.3 0.0
22/10:00am 27.2 28.0 18.2 58 5.8 NNE 11 22 6 12 1017.6 1014.3 0.0
22/09:30am 26.9 28.4 19.0 62 5.2 NNE 9 20 5 11 1017.6 1014.3 0.0
22/09:00am 27.1 29.0 19.7 64 4.9 NE 9 17 5 9 1017.6 1014.3 0.0
22/08:30am 24.9 25.8 19.3 71 3.7 NNE 13 20 7 11 1017.3 1014.0 0.0
22/08:00am 23.0 25.1 20.1 84 1.9 NNE 9 20 5 11 1017.0 1013.7 0.0
22/07:30am 22.0 23.9 20.5 91 1.0 NNE 11 19 6 10 1016.7 1013.4 0.0
22/07:00am 21.6 23.9 20.6 94 0.7 NNE 9 19 5 10 1016.7 1013.4 0.0
22/06:30am 21.0 23.5 20.3 96 0.5 NNE 7 15 4 8 1016.5 1013.2 0.0
22/06:00am 20.9 23.4 20.2 96 0.5 NE 7 17 4 9 1016.3 1013.0 0.0
22/05:30am 20.9 23.0 20.2 96 0.5 NNE 9 17 5 9 1015.9 1012.6 0.0
22/05:00am 20.8 22.9 20.1 96 0.5 NE 9 17 5 9 1015.7 1012.4 0.0
22/04:30am 20.9 23.0 20.2 96 0.5 NNE 9 15 5 8 1015.6 1012.3 0.0
22/04:00am 20.9 23.6 20.2 96 0.5 N 6 15 3 8 1015.4 1012.1 0.0
22/03:30am 21.0 23.2 20.3 96 0.5 NNE 9 17 5 9 1015.0 1011.7 0.0
22/03:00am 21.1 23.3 20.4 96 0.5 NE 9 20 5 11 1014.9 1011.6 0.0
22/02:30am 21.1 22.9 20.3 95 0.5 NE 11 22 6 12 1015.0 1011.7 0.0
22/02:00am 21.1 22.5 20.3 95 0.5 NE 13 22 7 12 1014.8 1011.5 0.0
22/01:30am 21.1 22.5 20.4 96 0.5 NE 13 24 7 13 1015.0 1011.7 0.0
22/01:00am 21.1 22.9 20.3 95 0.5 NE 11 28 6 15 1015.2 1011.9 0.0
22/12:30am 21.0 22.2 20.0 94 0.7 NNE 13 22 7 12 1015.6 1012.3 0.0
22/12:00am 21.0 21.9 20.0 94 0.7 NNE 15 28 8 15 1015.9 1012.6 0.0
 
Date/Time
EST
Temp
°C
App
Temp
°C
Dew
Point
Rel
Hum
%
Delta-T
°C
Wind Press
QNH
hPa
Press
MSL
hPa
Rain
since 9 am
mm
Dir
 
Spd
km/h
Gust
km/h
Spd
kts
Gust
kts
21/11:30pm 20.9 21.7 19.9 94 0.7 NE 15 28 8 15 1015.8 1012.5 0.0
21/11:00pm 21.1 22.3 19.9 93 0.8 NE 13 24 7 13 1016.1 1012.8 0.0
21/10:30pm 21.2 22.0 19.8 92 0.9 NE 15 28 8 15 1016.3 1013.0 0.0
21/10:00pm 21.3 22.4 19.6 90 1.1 NE 13 22 7 12 1016.5 1013.2 0.0
21/09:30pm 21.4 22.6 19.9 91 1.0 NE 13 22 7 12 1016.6 1013.3 0.0
21/09:00pm 21.4 23.0 19.9 91 1.0 NE 11 24 6 13 1016.5 1013.2 0.0
21/08:30pm 21.5 23.1 20.0 91 1.0 NE 11 20 6 11 1016.4 1013.1 0.0
21/08:00pm 21.4 22.6 19.9 91 1.0 NE 13 20 7 11 1015.8 1012.5 0.0
21/07:30pm 21.4 22.8 19.5 89 1.2 NNE 11 22 6 12 1015.4 1012.1 0.0
21/07:00pm 21.7 22.6 19.3 86 1.6 NNE 13 24 7 13 1015.0 1011.7 0.0
21/06:30pm 22.2 23.0 18.2 78 2.6 NNE 11 20 6 11 1014.6 1011.2 0.0
21/06:00pm 23.1 23.1 17.1 69 3.8 NNE 13 26 7 14 1014.2 1010.9 0.0
21/05:30pm 24.3 23.9 16.3 61 5.0 NNE 13 22 7 12 1014.0 1010.7 0.0
21/05:00pm 25.3 24.9 16.2 57 5.7 NNE 13 24 7 13 1013.8 1010.5 0.0
21/04:30pm 26.1 25.1 15.5 52 6.6 NNE 15 26 8 14 1013.6 1010.3 0.0
21/04:00pm 26.9 25.9 15.6 50 7.1 NE 15 30 8 16 1013.9 1010.6 0.0
21/03:30pm 27.2 26.1 15.2 47 7.5 NE 15 26 8 14 1014.2 1010.9 0.0
21/03:00pm 27.1 26.5 16.7 53 6.6 NNE 15 26 8 14 1014.6 1011.2 0.0
21/02:30pm 27.3 27.2 16.9 53 6.6 NE 13 22 7 12 1014.7 1011.4 0.0
21/02:00pm 29.3 29.2 16.1 44 8.4 NNE 11 24 6 13 1015.4 1012.1 0.0
21/01:30pm 27.3 28.1 17.2 54 6.5 NE 9 15 5 8 1015.9 1012.6 0.0
21/01:00pm 27.1 28.5 17.8 56 6.0 NE 7 15 4 8 1016.4 1013.1 0.0
21/12:30pm 27.1 28.5 17.8 56 6.0 NNE 7 13 4 7 1016.8 1013.5 0.0
21/12:00pm 27.7 28.6 17.5 53 6.6 NNE 9 17 5 9 1017.2 1013.9 0.0
21/11:30am 28.1 29.3 18.2 55 6.4 NNE 9 19 5 10 1017.4 1014.1 0.0
21/11:00am 27.7 28.1 17.3 53 6.7 N 11 30 6 16 1017.2 1013.9 0.0
21/10:30am 27.3 27.1 16.6 52 6.8 NNE 13 20 7 11 1017.8 1014.5 0.0
21/10:00am 26.5 26.8 17.0 56 6.0 NE 11 24 6 13 1018.4 1015.1 0.0
21/09:30am 26.1 26.6 17.5 59 5.5 NNE 11 22 6 12 1018.6 1015.3 0.0
21/09:00am 25.1 25.4 17.1 61 5.1 NNE 11 19 6 10 1018.5 1015.2 0.0
21/08:30am 24.9 26.0 17.9 65 4.5 NE 9 19 5 10 1018.5 1015.2 0.0
21/08:00am 22.4 23.4 17.8 75 2.9 NE 9 17 5 9 1018.5 1015.2 0.0
21/07:30am 23.6 25.0 18.7 74 3.2 NE 9 17 5 9 1017.9 1014.7 0.0
21/07:00am 21.8 23.3 18.8 83 1.9 ENE 9 19 5 10 1017.6 1014.3 0.0
21/06:30am 21.0 22.1 18.8 87 1.4 ENE 11 20 6 11 1017.0 1013.7 0.0
21/06:00am 20.6 21.8 19.1 91 1.0 NE 11 20 6 11 1016.5 1013.2 0.0
21/05:30am 20.7 22.0 19.4 92 0.8 NE 11 19 6 10 1016.4 1013.1 0.0
21/05:00am 20.6 21.7 18.9 90 1.1 NE 11 24 6 13 1016.3 1013.0 0.0
21/04:30am 20.6 21.5 19.3 92 0.8 NE 13 22 7 12 1015.9 1012.6 0.0
21/04:00am 20.6 21.9 19.3 92 0.8 NE 11 24 6 13 1015.8 1012.5 0.0
21/03:30am 20.6 21.6 19.4 93 0.8 NE 13 22 7 12 1015.5 1012.2 0.0
21/03:00am 20.6 21.8 19.1 91 1.0 NE 11 24 6 13 1015.4 1012.1 0.0
21/02:30am 20.4 20.8 19.1 92 0.8 NE 15 24 8 13 1015.4 1012.1 0.0
21/02:00am 20.6 21.4 19.1 91 1.0 NE 13 22 7 12 1015.5 1012.2 0.0
21/01:30am 20.7 20.9 19.4 92 0.8 NE 17 30 9 16 1015.4 1012.1 0.0
21/01:00am 20.8 21.4 19.5 92 0.8 NE 15 26 8 14 1015.5 1012.2 0.0
21/12:30am 20.9 21.5 19.4 91 1.0 NE 15 26 8 14 1016.0 1012.7 0.0
21/12:00am 21.0 22.0 19.5 91 1.0 NE 13 22 7 12 1016.6 1013.3 0.0
 
Date/Time
EST
Temp
°C
App
Temp
°C
Dew
Point
Rel
Hum
%
Delta-T
°C
Wind Press
QNH
hPa
Press
MSL
hPa
Rain
since 9 am
mm
Dir
 
Spd
km/h
Gust
km/h
Spd
kts
Gust
kts
20/11:30pm 21.0 22.0 19.5 91 1.0 NE 13 24 7 13 1016.8 1013.5 0.0

Other Formats:

Comma delimited format used in spreadsheet applications
http://www.bom.gov.au/fwo/IDQ60801/IDQ60801.95293.axf

JavaScript Object Notation format (JSON) in row-major order
http://www.bom.gov.au/fwo/IDQ60801/IDQ60801.95293.json